sensor_id;sensor_type;location;lat;lon;timestamp;temperature;humidity
11700;DHT22;5906;51.660;6.674;2023-02-28T00:00:19;-1.30;99.90
11700;DHT22;5906;51.660;6.674;2023-02-28T00:02:46;-1.30;99.90
11700;DHT22;5906;51.660;6.674;2023-02-28T00:05:16;-1.30;99.90
11700;DHT22;5906;51.660;6.674;2023-02-28T00:07:43;-1.40;99.90
11700;DHT22;5906;51.660;6.674;2023-02-28T00:10:13;-1.50;99.90
11700;DHT22;5906;51.660;6.674;2023-02-28T00:12:40;-1.50;99.90
11700;DHT22;5906;51.660;6.674;2023-02-28T00:15:09;-1.60;99.90
11700;DHT22;5906;51.660;6.674;2023-02-28T00:17:37;-1.50;99.90
11700;DHT22;5906;51.660;6.674;2023-02-28T00:20:06;-1.60;99.90
11700;DHT22;5906;51.660;6.674;2023-02-28T00:22:40;-1.60;99.90
11700;DHT22;5906;51.660;6.674;2023-02-28T00:25:08;-1.60;99.90
11700;DHT22;5906;51.660;6.674;2023-02-28T00:27:37;-1.60;99.90
11700;DHT22;5906;51.660;6.674;2023-02-28T00:30:08;-1.70;99.90
11700;DHT22;5906;51.660;6.674;2023-02-28T00:32:35;-1.70;99.90
11700;DHT22;5906;51.660;6.674;2023-02-28T00:35:03;-1.70;99.90
11700;DHT22;5906;51.660;6.674;2023-02-28T00:37:30;-1.70;99.90
11700;DHT22;5906;51.660;6.674;2023-02-28T00:39:57;-1.70;99.90
11700;DHT22;5906;51.660;6.674;2023-02-28T00:42:24;-1.70;99.90
11700;DHT22;5906;51.660;6.674;2023-02-28T00:44:51;-1.70;99.90
11700;DHT22;5906;51.660;6.674;2023-02-28T00:47:18;-1.80;99.90
11700;DHT22;5906;51.660;6.674;2023-02-28T00:49:45;-1.80;99.90
11700;DHT22;5906;51.660;6.674;2023-02-28T00:52:12;-1.80;99.90
11700;DHT22;5906;51.660;6.674;2023-02-28T00:54:39;-1.90;99.90
11700;DHT22;5906;51.660;6.674;2023-02-28T00:57:07;-1.90;99.90
11700;DHT22;5906;51.660;6.674;2023-02-28T00:59:34;-1.90;99.90
11700;DHT22;5906;51.660;6.674;2023-02-28T01:02:01;-1.90;99.90
11700;DHT22;5906;51.660;6.674;2023-02-28T01:04:28;-1.90;99.90
11700;DHT22;5906;51.660;6.674;2023-02-28T01:06:55;-1.90;99.90
11700;DHT22;5906;51.660;6.674;2023-02-28T01:09:22;-1.90;99.90
11700;DHT22;5906;51.660;6.674;2023-02-28T01:11:49;-2.00;99.90
11700;DHT22;5906;51.660;6.674;2023-02-28T01:14:17;-1.90;99.90
11700;DHT22;5906;51.660;6.674;2023-02-28T01:16:44;-2.00;99.90
11700;DHT22;5906;51.660;6.674;2023-02-28T01:19:12;-2.00;99.90
11700;DHT22;5906;51.660;6.674;2023-02-28T01:21:39;-2.00;99.90
11700;DHT22;5906;51.660;6.674;2023-02-28T01:24:06;-2.00;99.90
11700;DHT22;5906;51.660;6.674;2023-02-28T01:26:33;-2.00;99.90
11700;DHT22;5906;51.660;6.674;2023-02-28T01:29:00;-2.00;99.90
11700;DHT22;5906;51.660;6.674;2023-02-28T01:31:27;-2.10;99.90
11700;DHT22;5906;51.660;6.674;2023-02-28T01:33:55;-2.00;99.90
11700;DHT22;5906;51.660;6.674;2023-02-28T01:36:23;-2.00;99.90
11700;DHT22;5906;51.660;6.674;2023-02-28T01:38:51;-2.10;99.90
11700;DHT22;5906;51.660;6.674;2023-02-28T01:41:20;-2.00;99.90
11700;DHT22;5906;51.660;6.674;2023-02-28T01:46:15;-1.90;99.90
11700;DHT22;5906;51.660;6.674;2023-02-28T01:48:53;-1.70;99.90
11700;DHT22;5906;51.660;6.674;2023-02-28T01:51:45;-1.60;99.90
11700;DHT22;5906;51.660;6.674;2023-02-28T01:54:24;-1.60;99.90
11700;DHT22;5906;51.660;6.674;2023-02-28T01:57:01;-1.50;99.90
11700;DHT22;5906;51.660;6.674;2023-02-28T01:59:42;-1.50;99.90
11700;DHT22;5906;51.660;6.674;2023-02-28T02:02:14;-1.50;99.90
11700;DHT22;5906;51.660;6.674;2023-02-28T02:05:22;-1.50;99.90
11700;DHT22;5906;51.660;6.674;2023-02-28T02:07:47;-1.40;99.90
11700;DHT22;5906;51.660;6.674;2023-02-28T02:10:21;-1.40;99.90
11700;DHT22;5906;51.660;6.674;2023-02-28T02:29:33;-1.60;99.90
11700;DHT22;5906;51.660;6.674;2023-02-28T02:32:28;-1.70;99.90
11700;DHT22;5906;51.660;6.674;2023-02-28T02:38:10;-1.80;99.90
11700;DHT22;5906;51.660;6.674;2023-02-28T02:40:52;-1.90;99.90
11700;DHT22;5906;51.660;6.674;2023-02-28T02:46:39;-2.00;99.90
11700;DHT22;5906;51.660;6.674;2023-02-28T02:49:14;-2.00;99.90
11700;DHT22;5906;51.660;6.674;2023-02-28T02:51:43;-2.10;99.90
11700;DHT22;5906;51.660;6.674;2023-02-28T02:54:27;-2.10;99.90
11700;DHT22;5906;51.660;6.674;2023-02-28T02:57:04;-2.10;99.90
11700;DHT22;5906;51.660;6.674;2023-02-28T02:59:32;-2.10;99.90
11700;DHT22;5906;51.660;6.674;2023-02-28T03:02:03;-2.10;99.90
11700;DHT22;5906;51.660;6.674;2023-02-28T03:04:34;-2.10;99.90
11700;DHT22;5906;51.660;6.674;2023-02-28T03:07:05;-2.20;99.90
11700;DHT22;5906;51.660;6.674;2023-02-28T03:09:33;-2.10;99.90
11700;DHT22;5906;51.660;6.674;2023-02-28T03:12:00;-2.20;99.90
11700;DHT22;5906;51.660;6.674;2023-02-28T03:18:12;-2.30;99.90
11700;DHT22;5906;51.660;6.674;2023-02-28T03:23:32;-2.30;99.90
11700;DHT22;5906;51.660;6.674;2023-02-28T03:26:06;-2.30;99.90
11700;DHT22;5906;51.660;6.674;2023-02-28T03:29:00;-2.40;99.90
11700;DHT22;5906;51.660;6.674;2023-02-28T03:34:19;-2.40;99.90
11700;DHT22;5906;51.660;6.674;2023-02-28T03:36:52;-2.40;99.90
11700;DHT22;5906;51.660;6.674;2023-02-28T03:39:26;-2.40;99.90
11700;DHT22;5906;51.660;6.674;2023-02-28T03:41:59;-2.40;99.90
11700;DHT22;5906;51.660;6.674;2023-02-28T03:44:53;-2.50;99.90
11700;DHT22;5906;51.660;6.674;2023-02-28T03:50:07;-2.60;99.90
11700;DHT22;5906;51.660;6.674;2023-02-28T03:52:40;-2.60;99.90
11700;DHT22;5906;51.660;6.674;2023-02-28T03:55:13;-2.60;99.90
11700;DHT22;5906;51.660;6.674;2023-02-28T04:00:21;-2.60;99.90
11700;DHT22;5906;51.660;6.674;2023-02-28T04:02:53;-2.60;99.90
11700;DHT22;5906;51.660;6.674;2023-02-28T04:05:24;-2.70;99.90
11700;DHT22;5906;51.660;6.674;2023-02-28T04:07:51;-2.70;99.90
11700;DHT22;5906;51.660;6.674;2023-02-28T04:10:18;-2.70;99.90
11700;DHT22;5906;51.660;6.674;2023-02-28T04:12:45;-2.80;99.90
11700;DHT22;5906;51.660;6.674;2023-02-28T04:15:12;-2.80;99.90
11700;DHT22;5906;51.660;6.674;2023-02-28T04:17:39;-2.80;99.90
11700;DHT22;5906;51.660;6.674;2023-02-28T04:20:07;-2.90;99.90
11700;DHT22;5906;51.660;6.674;2023-02-28T04:22:36;-2.90;99.90
11700;DHT22;5906;51.660;6.674;2023-02-28T04:25:04;-2.90;99.90
11700;DHT22;5906;51.660;6.674;2023-02-28T04:27:32;-2.90;99.90
11700;DHT22;5906;51.660;6.674;2023-02-28T04:29:59;-3.00;99.90
11700;DHT22;5906;51.660;6.674;2023-02-28T04:32:26;-3.00;99.90
11700;DHT22;5906;51.660;6.674;2023-02-28T04:34:53;-3.00;99.90
11700;DHT22;5906;51.660;6.674;2023-02-28T04:37:20;-3.10;99.90
11700;DHT22;5906;51.660;6.674;2023-02-28T04:39:47;-3.10;99.90
11700;DHT22;5906;51.660;6.674;2023-02-28T04:42:15;-3.10;99.90
11700;DHT22;5906;51.660;6.674;2023-02-28T04:44:42;-3.10;99.90
11700;DHT22;5906;51.660;6.674;2023-02-28T04:47:09;-3.20;99.90
11700;DHT22;5906;51.660;6.674;2023-02-28T04:49:36;-3.20;99.90
11700;DHT22;5906;51.660;6.674;2023-02-28T04:52:03;-3.20;99.90
11700;DHT22;5906;51.660;6.674;2023-02-28T04:54:30;-3.20;99.90
11700;DHT22;5906;51.660;6.674;2023-02-28T04:56:57;-3.20;99.90
11700;DHT22;5906;51.660;6.674;2023-02-28T04:59:24;-3.20;99.90
11700;DHT22;5906;51.660;6.674;2023-02-28T05:01:51;-3.20;99.90
11700;DHT22;5906;51.660;6.674;2023-02-28T05:04:18;-3.30;99.90
11700;DHT22;5906;51.660;6.674;2023-02-28T05:06:45;-3.30;99.90
11700;DHT22;5906;51.660;6.674;2023-02-28T05:09:12;-3.30;99.90
11700;DHT22;5906;51.660;6.674;2023-02-28T05:11:39;-3.40;99.90
11700;DHT22;5906;51.660;6.674;2023-02-28T05:14:12;-3.40;99.90
11700;DHT22;5906;51.660;6.674;2023-02-28T05:16:39;-3.40;99.90
11700;DHT22;5906;51.660;6.674;2023-02-28T05:19:07;-3.40;99.90
11700;DHT22;5906;51.660;6.674;2023-02-28T05:21:36;-3.40;99.90
11700;DHT22;5906;51.660;6.674;2023-02-28T05:24:09;-3.40;99.90
11700;DHT22;5906;51.660;6.674;2023-02-28T05:26:39;-3.50;99.90
11700;DHT22;5906;51.660;6.674;2023-02-28T05:29:07;-3.50;99.90
11700;DHT22;5906;51.660;6.674;2023-02-28T05:31:34;-3.50;99.90
11700;DHT22;5906;51.660;6.674;2023-02-28T05:34:01;-3.50;99.90
11700;DHT22;5906;51.660;6.674;2023-02-28T05:36:30;-3.50;99.90
11700;DHT22;5906;51.660;6.674;2023-02-28T05:38:57;-3.50;99.90
11700;DHT22;5906;51.660;6.674;2023-02-28T05:41:24;-3.50;99.90
11700;DHT22;5906;51.660;6.674;2023-02-28T05:43:53;-3.60;99.90
11700;DHT22;5906;51.660;6.674;2023-02-28T05:46:19;-3.60;99.90
11700;DHT22;5906;51.660;6.674;2023-02-28T05:48:48;-3.60;99.90
11700;DHT22;5906;51.660;6.674;2023-02-28T05:51:15;-3.60;99.90
11700;DHT22;5906;51.660;6.674;2023-02-28T05:53:42;-3.60;99.90
11700;DHT22;5906;51.660;6.674;2023-02-28T05:56:09;-3.60;99.90
11700;DHT22;5906;51.660;6.674;2023-02-28T05:58:36;-3.60;99.90
11700;DHT22;5906;51.660;6.674;2023-02-28T06:03:49;-3.60;99.90
11700;DHT22;5906;51.660;6.674;2023-02-28T06:06:16;-3.70;99.90
11700;DHT22;5906;51.660;6.674;2023-02-28T06:08:43;-3.70;99.90
11700;DHT22;5906;51.660;6.674;2023-02-28T06:11:11;-3.70;99.90
11700;DHT22;5906;51.660;6.674;2023-02-28T06:13:38;-3.80;99.90
11700;DHT22;5906;51.660;6.674;2023-02-28T06:16:05;-3.80;99.90
11700;DHT22;5906;51.660;6.674;2023-02-28T06:18:32;-3.80;99.90
11700;DHT22;5906;51.660;6.674;2023-02-28T06:20:59;-3.80;99.90
11700;DHT22;5906;51.660;6.674;2023-02-28T06:23:25;-3.80;99.90
11700;DHT22;5906;51.660;6.674;2023-02-28T06:25:55;-3.90;99.90
11700;DHT22;5906;51.660;6.674;2023-02-28T06:28:25;-3.90;99.90
11700;DHT22;5906;51.660;6.674;2023-02-28T06:30:52;-3.90;99.90
11700;DHT22;5906;51.660;6.674;2023-02-28T06:33:19;-3.90;99.90
11700;DHT22;5906;51.660;6.674;2023-02-28T06:35:47;-3.90;99.90
11700;DHT22;5906;51.660;6.674;2023-02-28T06:38:16;-3.90;99.90
11700;DHT22;5906;51.660;6.674;2023-02-28T06:40:44;-3.90;99.90
11700;DHT22;5906;51.660;6.674;2023-02-28T06:43:11;-3.90;99.90
11700;DHT22;5906;51.660;6.674;2023-02-28T06:45:42;-3.80;99.90
11700;DHT22;5906;51.660;6.674;2023-02-28T06:48:09;-3.80;99.90
11700;DHT22;5906;51.660;6.674;2023-02-28T06:50:37;-3.80;99.90
11700;DHT22;5906;51.660;6.674;2023-02-28T06:53:04;-3.80;99.90
11700;DHT22;5906;51.660;6.674;2023-02-28T06:55:30;-3.70;99.90
11700;DHT22;5906;51.660;6.674;2023-02-28T06:57:58;-3.80;99.90
11700;DHT22;5906;51.660;6.674;2023-02-28T07:00:25;-3.70;99.90
11700;DHT22;5906;51.660;6.674;2023-02-28T07:02:52;-3.70;99.90
11700;DHT22;5906;51.660;6.674;2023-02-28T07:05:20;-3.70;99.90
11700;DHT22;5906;51.660;6.674;2023-02-28T07:07:47;-3.70;99.90
11700;DHT22;5906;51.660;6.674;2023-02-28T07:10:14;-3.60;99.90
11700;DHT22;5906;51.660;6.674;2023-02-28T07:12:45;-3.60;99.90
11700;DHT22;5906;51.660;6.674;2023-02-28T07:15:12;-3.50;99.90
11700;DHT22;5906;51.660;6.674;2023-02-28T07:17:39;-3.40;99.90
11700;DHT22;5906;51.660;6.674;2023-02-28T07:20:07;-3.30;99.90
11700;DHT22;5906;51.660;6.674;2023-02-28T07:22:33;-3.20;99.90
11700;DHT22;5906;51.660;6.674;2023-02-28T07:25:00;-3.20;99.90
11700;DHT22;5906;51.660;6.674;2023-02-28T07:27:27;-3.00;99.90
11700;DHT22;5906;51.660;6.674;2023-02-28T07:29:54;-2.80;99.90
11700;DHT22;5906;51.660;6.674;2023-02-28T07:32:21;-2.70;99.90
11700;DHT22;5906;51.660;6.674;2023-02-28T07:34:48;-2.60;99.90
11700;DHT22;5906;51.660;6.674;2023-02-28T07:37:15;-2.60;99.90
11700;DHT22;5906;51.660;6.674;2023-02-28T07:39:42;-2.50;99.90
11700;DHT22;5906;51.660;6.674;2023-02-28T07:42:09;-2.40;99.90
11700;DHT22;5906;51.660;6.674;2023-02-28T07:44:41;-2.30;99.90
11700;DHT22;5906;51.660;6.674;2023-02-28T07:47:12;-2.20;99.90
11700;DHT22;5906;51.660;6.674;2023-02-28T07:49:38;-2.10;99.90
11700;DHT22;5906;51.660;6.674;2023-02-28T07:52:06;-2.00;99.90
11700;DHT22;5906;51.660;6.674;2023-02-28T07:54:34;-2.00;99.90
11700;DHT22;5906;51.660;6.674;2023-02-28T07:57:00;-1.90;99.90
11700;DHT22;5906;51.660;6.674;2023-02-28T07:59:27;-1.80;99.90
11700;DHT22;5906;51.660;6.674;2023-02-28T08:01:58;-1.60;99.90
11700;DHT22;5906;51.660;6.674;2023-02-28T08:04:25;-1.50;99.90
11700;DHT22;5906;51.660;6.674;2023-02-28T08:06:52;-1.40;99.90
11700;DHT22;5906;51.660;6.674;2023-02-28T08:09:20;-1.20;99.90
11700;DHT22;5906;51.660;6.674;2023-02-28T08:11:47;-1.10;99.90
11700;DHT22;5906;51.660;6.674;2023-02-28T08:14:13;-0.90;99.90
11700;DHT22;5906;51.660;6.674;2023-02-28T08:16:40;-0.90;99.90
11700;DHT22;5906;51.660;6.674;2023-02-28T08:19:09;-0.80;99.90
11700;DHT22;5906;51.660;6.674;2023-02-28T08:21:36;-0.70;99.90
11700;DHT22;5906;51.660;6.674;2023-02-28T08:24:02;-0.60;1.00
11700;DHT22;5906;51.660;6.674;2023-02-28T08:26:29;-0.40;1.00
11700;DHT22;5906;51.660;6.674;2023-02-28T08:28:56;-0.20;1.00
11700;DHT22;5906;51.660;6.674;2023-02-28T08:31:26;-0.10;99.90
11700;DHT22;5906;51.660;6.674;2023-02-28T08:33:53;0.10;1.00
11700;DHT22;5906;51.660;6.674;2023-02-28T08:36:23;0.30;99.90
11700;DHT22;5906;51.660;6.674;2023-02-28T08:38:50;0.50;77.90
11700;DHT22;5906;51.660;6.674;2023-02-28T08:41:17;0.60;99.90
11700;DHT22;5906;51.660;6.674;2023-02-28T08:43:44;0.80;99.90
11700;DHT22;5906;51.660;6.674;2023-02-28T08:46:12;0.90;99.90
11700;DHT22;5906;51.660;6.674;2023-02-28T08:48:40;1.00;99.90
11700;DHT22;5906;51.660;6.674;2023-02-28T08:51:13;1.10;99.90
11700;DHT22;5906;51.660;6.674;2023-02-28T08:53:40;1.30;99.90
11700;DHT22;5906;51.660;6.674;2023-02-28T08:56:13;1.60;99.90
11700;DHT22;5906;51.660;6.674;2023-02-28T08:58:40;1.70;99.90
11700;DHT22;5906;51.660;6.674;2023-02-28T09:01:12;1.80;99.90
11700;DHT22;5906;51.660;6.674;2023-02-28T09:03:41;2.00;99.90
11700;DHT22;5906;51.660;6.674;2023-02-28T09:06:09;2.00;99.90
11700;DHT22;5906;51.660;6.674;2023-02-28T09:08:37;2.10;99.90
11700;DHT22;5906;51.660;6.674;2023-02-28T09:11:04;2.30;99.90
11700;DHT22;5906;51.660;6.674;2023-02-28T09:13:32;2.40;99.90
11700;DHT22;5906;51.660;6.674;2023-02-28T09:16:01;2.60;99.90
11700;DHT22;5906;51.660;6.674;2023-02-28T09:18:29;2.80;99.90
11700;DHT22;5906;51.660;6.674;2023-02-28T09:20:56;3.00;99.90
11700;DHT22;5906;51.660;6.674;2023-02-28T09:23:24;3.10;99.90
11700;DHT22;5906;51.660;6.674;2023-02-28T09:25:53;3.20;99.90
11700;DHT22;5906;51.660;6.674;2023-02-28T09:28:21;3.40;99.90
11700;DHT22;5906;51.660;6.674;2023-02-28T09:30:50;3.50;92.90
11700;DHT22;5906;51.660;6.674;2023-02-28T09:33:18;3.50;97.70
11700;DHT22;5906;51.660;6.674;2023-02-28T09:35:51;3.50;97.30
11700;DHT22;5906;51.660;6.674;2023-02-28T09:38:24;3.70;95.70
11700;DHT22;5906;51.660;6.674;2023-02-28T09:40:54;3.80;94.10
11700;DHT22;5906;51.660;6.674;2023-02-28T09:43:25;4.00;87.20
11700;DHT22;5906;51.660;6.674;2023-02-28T09:45:59;4.20;83.70
11700;DHT22;5906;51.660;6.674;2023-02-28T09:48:40;4.30;67.10
11700;DHT22;5906;51.660;6.674;2023-02-28T09:51:25;4.40;59.90
11700;DHT22;5906;51.660;6.674;2023-02-28T09:53:57;4.50;69.00
11700;DHT22;5906;51.660;6.674;2023-02-28T09:56:36;4.60;55.40
11700;DHT22;5906;51.660;6.674;2023-02-28T10:04:37;5.10;50.60
11700;DHT22;5906;51.660;6.674;2023-02-28T10:07:21;5.10;47.50
11700;DHT22;5906;51.660;6.674;2023-02-28T10:09:53;5.20;51.50
11700;DHT22;5906;51.660;6.674;2023-02-28T10:12:21;5.30;47.90
11700;DHT22;5906;51.660;6.674;2023-02-28T10:14:51;5.30;50.60
11700;DHT22;5906;51.660;6.674;2023-02-28T10:17:26;5.40;45.70
11700;DHT22;5906;51.660;6.674;2023-02-28T10:20:02;5.40;42.00
11700;DHT22;5906;51.660;6.674;2023-02-28T10:25:20;5.40;42.60
11700;DHT22;5906;51.660;6.674;2023-02-28T10:27:49;5.40;43.00
11700;DHT22;5906;51.660;6.674;2023-02-28T10:30:20;5.40;42.50
11700;DHT22;5906;51.660;6.674;2023-02-28T10:32:50;5.40;41.10
11700;DHT22;5906;51.660;6.674;2023-02-28T10:35:24;5.30;43.40
11700;DHT22;5906;51.660;6.674;2023-02-28T10:37:57;5.40;40.20
11700;DHT22;5906;51.660;6.674;2023-02-28T10:40:33;5.50;40.60
11700;DHT22;5906;51.660;6.674;2023-02-28T10:43:05;5.50;37.70
11700;DHT22;5906;51.660;6.674;2023-02-28T10:45:34;5.50;40.30
11700;DHT22;5906;51.660;6.674;2023-02-28T10:50:45;5.60;35.90
11700;DHT22;5906;51.660;6.674;2023-02-28T10:53:28;5.60;36.60
11700;DHT22;5906;51.660;6.674;2023-02-28T10:56:05;5.70;37.40
11700;DHT22;5906;51.660;6.674;2023-02-28T11:01:44;5.90;36.00
11700;DHT22;5906;51.660;6.674;2023-02-28T11:07:01;5.70;35.50
11700;DHT22;5906;51.660;6.674;2023-02-28T11:11:57;5.80;33.10
11700;DHT22;5906;51.660;6.674;2023-02-28T11:14:28;5.90;30.80
11700;DHT22;5906;51.660;6.674;2023-02-28T11:17:02;6.00;33.60
11700;DHT22;5906;51.660;6.674;2023-02-28T11:19:38;6.10;33.50
11700;DHT22;5906;51.660;6.674;2023-02-28T11:22:07;6.20;34.80
11700;DHT22;5906;51.660;6.674;2023-02-28T11:24:40;6.40;31.50
11700;DHT22;5906;51.660;6.674;2023-02-28T11:29:59;6.10;29.70
11700;DHT22;5906;51.660;6.674;2023-02-28T11:32:30;5.90;30.50
11700;DHT22;5906;51.660;6.674;2023-02-28T11:37:38;5.60;33.10
11700;DHT22;5906;51.660;6.674;2023-02-28T11:40:21;5.60;35.40
11700;DHT22;5906;51.660;6.674;2023-02-28T11:48:46;5.80;35.30
11700;DHT22;5906;51.660;6.674;2023-02-28T11:51:28;5.80;34.30
11700;DHT22;5906;51.660;6.674;2023-02-28T11:56:44;5.90;36.10
11700;DHT22;5906;51.660;6.674;2023-02-28T11:59:38;6.00;39.20
11700;DHT22;5906;51.660;6.674;2023-02-28T12:04:52;6.40;36.90
11700;DHT22;5906;51.660;6.674;2023-02-28T12:07:29;6.60;38.30
11700;DHT22;5906;51.660;6.674;2023-02-28T12:27:23;6.80;32.80
11700;DHT22;5906;51.660;6.674;2023-02-28T12:33:03;7.10;29.20
11700;DHT22;5906;51.660;6.674;2023-02-28T12:35:53;6.90;28.60
11700;DHT22;5906;51.660;6.674;2023-02-28T12:38:36;6.70;29.00
11700;DHT22;5906;51.660;6.674;2023-02-28T12:41:17;6.70;30.00
11700;DHT22;5906;51.660;6.674;2023-02-28T12:43:57;6.80;29.30
11700;DHT22;5906;51.660;6.674;2023-02-28T12:46:34;6.80;28.90
11700;DHT22;5906;51.660;6.674;2023-02-28T12:49:32;7.00;28.60
11700;DHT22;5906;51.660;6.674;2023-02-28T12:52:00;7.20;30.30
11700;DHT22;5906;51.660;6.674;2023-02-28T12:57:31;6.90;29.10
11700;DHT22;5906;51.660;6.674;2023-02-28T13:00:04;7.00;31.20
11700;DHT22;5906;51.660;6.674;2023-02-28T13:14:00;7.50;29.70
11700;DHT22;5906;51.660;6.674;2023-02-28T13:16:28;7.40;31.10
11700;DHT22;5906;51.660;6.674;2023-02-28T13:19:17;7.40;29.50
11700;DHT22;5906;51.660;6.674;2023-02-28T13:21:50;7.30;33.00
11700;DHT22;5906;51.660;6.674;2023-02-28T13:24:38;7.40;31.10
11700;DHT22;5906;51.660;6.674;2023-02-28T13:29:41;7.70;30.60
11700;DHT22;5906;51.660;6.674;2023-02-28T13:34:38;7.50;28.90
11700;DHT22;5906;51.660;6.674;2023-02-28T13:42:50;7.60;30.00
11700;DHT22;5906;51.660;6.674;2023-02-28T13:48:01;7.50;29.10
11700;DHT22;5906;51.660;6.674;2023-02-28T13:50:47;7.50;28.70
11700;DHT22;5906;51.660;6.674;2023-02-28T13:55:58;7.40;30.30
11700;DHT22;5906;51.660;6.674;2023-02-28T14:06:30;7.30;30.20
11700;DHT22;5906;51.660;6.674;2023-02-28T14:09:24;7.20;31.80
11700;DHT22;5906;51.660;6.674;2023-02-28T14:11:50;7.10;31.20
11700;DHT22;5906;51.660;6.674;2023-02-28T14:17:05;7.10;31.30
11700;DHT22;5906;51.660;6.674;2023-02-28T14:19:34;7.10;32.00
11700;DHT22;5906;51.660;6.674;2023-02-28T14:30:40;7.00;33.80
11700;DHT22;5906;51.660;6.674;2023-02-28T14:33:25;7.20;35.60
11700;DHT22;5906;51.660;6.674;2023-02-28T14:38:36;7.00;34.20
11700;DHT22;5906;51.660;6.674;2023-02-28T14:41:24;6.90;36.90
11700;DHT22;5906;51.660;6.674;2023-02-28T14:43:59;6.80;38.00
11700;DHT22;5906;51.660;6.674;2023-02-28T14:46:38;6.70;38.70
11700;DHT22;5906;51.660;6.674;2023-02-28T14:49:12;6.70;39.20
11700;DHT22;5906;51.660;6.674;2023-02-28T14:51:39;6.70;37.50
11700;DHT22;5906;51.660;6.674;2023-02-28T14:54:06;6.50;39.80
11700;DHT22;5906;51.660;6.674;2023-02-28T14:56:38;6.50;41.40
11700;DHT22;5906;51.660;6.674;2023-02-28T14:59:22;6.50;42.60
11700;DHT22;5906;51.660;6.674;2023-02-28T15:01:52;6.60;42.80
11700;DHT22;5906;51.660;6.674;2023-02-28T15:04:26;6.60;44.20
11700;DHT22;5906;51.660;6.674;2023-02-28T15:07:11;6.50;45.60
11700;DHT22;5906;51.660;6.674;2023-02-28T15:09:38;6.50;45.40
11700;DHT22;5906;51.660;6.674;2023-02-28T15:12:05;6.60;45.60
11700;DHT22;5906;51.660;6.674;2023-02-28T15:14:34;6.60;45.60
11700;DHT22;5906;51.660;6.674;2023-02-28T15:17:14;6.60;45.90
11700;DHT22;5906;51.660;6.674;2023-02-28T15:19:49;6.50;47.70
11700;DHT22;5906;51.660;6.674;2023-02-28T15:22:26;6.50;48.70
11700;DHT22;5906;51.660;6.674;2023-02-28T15:24:56;6.60;47.40
11700;DHT22;5906;51.660;6.674;2023-02-28T15:27:31;6.60;47.80
11700;DHT22;5906;51.660;6.674;2023-02-28T15:30:04;6.60;47.20
11700;DHT22;5906;51.660;6.674;2023-02-28T15:35:16;6.50;50.30
11700;DHT22;5906;51.660;6.674;2023-02-28T15:38:24;6.40;51.20
11700;DHT22;5906;51.660;6.674;2023-02-28T15:43:28;6.60;50.50
11700;DHT22;5906;51.660;6.674;2023-02-28T15:46:10;6.60;52.20
11700;DHT22;5906;51.660;6.674;2023-02-28T15:48:55;6.50;51.70
11700;DHT22;5906;51.660;6.674;2023-02-28T15:51:27;6.50;53.00
11700;DHT22;5906;51.660;6.674;2023-02-28T15:54:04;6.50;51.40
11700;DHT22;5906;51.660;6.674;2023-02-28T15:56:37;6.50;51.60
11700;DHT22;5906;51.660;6.674;2023-02-28T15:59:07;6.40;52.80
11700;DHT22;5906;51.660;6.674;2023-02-28T16:01:40;6.30;54.70
11700;DHT22;5906;51.660;6.674;2023-02-28T16:04:16;6.20;55.60
11700;DHT22;5906;51.660;6.674;2023-02-28T16:09:20;6.20;56.40
11700;DHT22;5906;51.660;6.674;2023-02-28T16:11:49;6.10;57.00
11700;DHT22;5906;51.660;6.674;2023-02-28T16:14:25;6.10;56.70
11700;DHT22;5906;51.660;6.674;2023-02-28T16:16:56;6.00;57.20
11700;DHT22;5906;51.660;6.674;2023-02-28T16:19:24;6.10;59.10
11700;DHT22;5906;51.660;6.674;2023-02-28T16:21:51;6.10;58.30
11700;DHT22;5906;51.660;6.674;2023-02-28T16:24:18;6.00;58.50
11700;DHT22;5906;51.660;6.674;2023-02-28T16:26:47;6.00;57.50
11700;DHT22;5906;51.660;6.674;2023-02-28T16:29:25;5.90;58.20
11700;DHT22;5906;51.660;6.674;2023-02-28T16:31:53;5.70;62.40
11700;DHT22;5906;51.660;6.674;2023-02-28T16:34:21;5.60;67.80
11700;DHT22;5906;51.660;6.674;2023-02-28T16:36:49;5.60;65.30
11700;DHT22;5906;51.660;6.674;2023-02-28T16:39:16;5.70;66.90
11700;DHT22;5906;51.660;6.674;2023-02-28T16:41:45;5.60;67.20
11700;DHT22;5906;51.660;6.674;2023-02-28T16:44:35;5.50;70.70
11700;DHT22;5906;51.660;6.674;2023-02-28T16:47:03;5.40;73.60
11700;DHT22;5906;51.660;6.674;2023-02-28T16:49:30;5.40;76.30
11700;DHT22;5906;51.660;6.674;2023-02-28T16:51:58;5.40;75.10
11700;DHT22;5906;51.660;6.674;2023-02-28T16:54:25;5.40;77.70
11700;DHT22;5906;51.660;6.674;2023-02-28T16:56:52;5.30;78.90
11700;DHT22;5906;51.660;6.674;2023-02-28T16:59:22;5.20;79.80
11700;DHT22;5906;51.660;6.674;2023-02-28T17:01:51;5.00;83.80
11700;DHT22;5906;51.660;6.674;2023-02-28T17:04:19;5.00;84.80
11700;DHT22;5906;51.660;6.674;2023-02-28T17:06:46;5.00;86.70
11700;DHT22;5906;51.660;6.674;2023-02-28T17:09:23;5.00;86.60
11700;DHT22;5906;51.660;6.674;2023-02-28T17:12:07;4.90;88.00
11700;DHT22;5906;51.660;6.674;2023-02-28T17:14:35;4.70;91.10
11700;DHT22;5906;51.660;6.674;2023-02-28T17:17:04;4.70;91.80
11700;DHT22;5906;51.660;6.674;2023-02-28T17:19:32;4.50;93.20
11700;DHT22;5906;51.660;6.674;2023-02-28T17:22:00;4.50;94.40
11700;DHT22;5906;51.660;6.674;2023-02-28T17:24:27;4.30;95.50
11700;DHT22;5906;51.660;6.674;2023-02-28T17:26:57;4.20;97.00
11700;DHT22;5906;51.660;6.674;2023-02-28T17:29:24;4.10;97.10
11700;DHT22;5906;51.660;6.674;2023-02-28T17:31:52;4.10;97.70
11700;DHT22;5906;51.660;6.674;2023-02-28T17:34:19;4.10;97.70
11700;DHT22;5906;51.660;6.674;2023-02-28T17:36:48;4.00;98.70
11700;DHT22;5906;51.660;6.674;2023-02-28T17:39:17;3.90;99.60
11700;DHT22;5906;51.660;6.674;2023-02-28T17:41:52;3.70;99.90
11700;DHT22;5906;51.660;6.674;2023-02-28T17:44:20;3.60;99.90
11700;DHT22;5906;51.660;6.674;2023-02-28T17:46:48;3.60;99.90
11700;DHT22;5906;51.660;6.674;2023-02-28T17:49:17;3.50;99.90
11700;DHT22;5906;51.660;6.674;2023-02-28T17:51:44;3.30;99.90
11700;DHT22;5906;51.660;6.674;2023-02-28T17:54:11;3.20;99.90
11700;DHT22;5906;51.660;6.674;2023-02-28T17:56:38;3.20;99.90
11700;DHT22;5906;51.660;6.674;2023-02-28T17:59:08;3.10;99.90
11700;DHT22;5906;51.660;6.674;2023-02-28T18:01:36;3.00;99.90
11700;DHT22;5906;51.660;6.674;2023-02-28T18:04:03;3.00;99.90
11700;DHT22;5906;51.660;6.674;2023-02-28T18:08:57;2.80;99.90
11700;DHT22;5906;51.660;6.674;2023-02-28T18:11:25;2.80;99.90
11700;DHT22;5906;51.660;6.674;2023-02-28T18:13:54;2.70;99.90
11700;DHT22;5906;51.660;6.674;2023-02-28T18:16:22;2.60;99.90
11700;DHT22;5906;51.660;6.674;2023-02-28T18:18:50;2.50;99.90
11700;DHT22;5906;51.660;6.674;2023-02-28T18:21:17;2.50;99.90
11700;DHT22;5906;51.660;6.674;2023-02-28T18:23:44;2.40;99.90
11700;DHT22;5906;51.660;6.674;2023-02-28T18:26:15;2.20;99.90
11700;DHT22;5906;51.660;6.674;2023-02-28T18:28:43;2.10;99.90
11700;DHT22;5906;51.660;6.674;2023-02-28T18:31:18;2.10;99.90
11700;DHT22;5906;51.660;6.674;2023-02-28T18:33:50;2.00;99.90
11700;DHT22;5906;51.660;6.674;2023-02-28T18:36:19;1.90;99.90
11700;DHT22;5906;51.660;6.674;2023-02-28T18:38:47;1.90;99.90
11700;DHT22;5906;51.660;6.674;2023-02-28T18:41:17;1.80;99.90
11700;DHT22;5906;51.660;6.674;2023-02-28T18:43:46;1.70;99.90
11700;DHT22;5906;51.660;6.674;2023-02-28T18:46:17;1.60;99.90
11700;DHT22;5906;51.660;6.674;2023-02-28T18:48:46;1.60;99.90
11700;DHT22;5906;51.660;6.674;2023-02-28T18:51:24;1.50;99.90
11700;DHT22;5906;51.660;6.674;2023-02-28T18:53:51;1.50;99.90
11700;DHT22;5906;51.660;6.674;2023-02-28T18:56:22;1.40;99.90
11700;DHT22;5906;51.660;6.674;2023-02-28T18:58:50;1.30;99.90